sensor_id;sensor_type;location;lat;lon;timestamp;pressure;altitude;pressure_sealevel;temperature;humidity
45253;BME280;63171;50.520;30.486;2023-08-17T00:00:13;100581.72;;;25.47;57.74
45253;BME280;63171;50.520;30.486;2023-08-17T00:04:45;100580.56;;;25.42;58.23
45253;BME280;63171;50.520;30.486;2023-08-17T00:05:36;100577.41;;;25.38;57.99
45253;BME280;63171;50.520;30.486;2023-08-17T00:06:25;100582.09;;;25.36;57.82
45253;BME280;63171;50.520;30.486;2023-08-17T00:07:15;100582.25;;;25.34;57.99
45253;BME280;63171;50.520;30.486;2023-08-17T00:08:05;100584.63;;;25.38;58.10
45253;BME280;63171;50.520;30.486;2023-08-17T00:08:55;100582.09;;;25.36;58.18
45253;BME280;63171;50.520;30.486;2023-08-17T00:09:44;100585.78;;;25.35;58.20
45253;BME280;63171;50.520;30.486;2023-08-17T00:10:34;100588.81;;;25.32;58.23
45253;BME280;63171;50.520;30.486;2023-08-17T00:11:24;100588.63;;;25.33;58.07
45253;BME280;63171;50.520;30.486;2023-08-17T00:12:14;100588.81;;;25.32;58.23
45253;BME280;63171;50.520;30.486;2023-08-17T00:13:04;100586.97;;;25.32;58.40
45253;BME280;63171;50.520;30.486;2023-08-17T00:13:53;100583.44;;;25.32;58.30
45253;BME280;63171;50.520;30.486;2023-08-17T00:14:44;100583.63;;;25.30;58.61
45253;BME280;63171;50.520;30.486;2023-08-17T00:15:33;100589.53;;;25.26;58.32
45253;BME280;63171;50.520;30.486;2023-08-17T00:16:22;100587.03;;;25.24;58.53
45253;BME280;63171;50.520;30.486;2023-08-17T00:17:12;100586.84;;;25.26;58.58
45253;BME280;63171;50.520;30.486;2023-08-17T00:18:02;100590.34;;;25.26;58.63
45253;BME280;63171;50.520;30.486;2023-08-17T00:18:52;100585.31;;;25.23;58.49
45253;BME280;63171;50.520;30.486;2023-08-17T00:19:42;100589.00;;;25.22;58.54
45253;BME280;63171;50.520;30.486;2023-08-17T00:20:34;100590.19;;;25.20;58.90
45253;BME280;63171;50.520;30.486;2023-08-17T00:21:23;100589.38;;;25.19;58.98
45253;BME280;63171;50.520;30.486;2023-08-17T00:22:13;100588.03;;;25.15;58.75
45253;BME280;63171;50.520;30.486;2023-08-17T00:23:03;100592.22;;;25.18;59.10
45253;BME280;63171;50.520;30.486;2023-08-17T00:23:53;100588.88;;;25.16;58.81
45253;BME280;63171;50.520;30.486;2023-08-17T00:24:42;100591.91;;;25.13;59.12
45253;BME280;63171;50.520;30.486;2023-08-17T00:25:34;100589.22;;;25.13;59.22
45253;BME280;63171;50.520;30.486;2023-08-17T00:26:24;100595.59;;;25.12;59.23
45253;BME280;63171;50.520;30.486;2023-08-17T00:27:14;100591.22;;;25.11;58.89
45253;BME280;63171;50.520;30.486;2023-08-17T00:28:06;100592.41;;;25.08;59.10
45253;BME280;63171;50.520;30.486;2023-08-17T00:28:55;100592.41;;;25.08;59.17
45253;BME280;63171;50.520;30.486;2023-08-17T00:29:44;100591.56;;;25.08;59.30
45253;BME280;63171;50.520;30.486;2023-08-17T00:30:35;100598.78;;;25.07;59.44
45253;BME280;63171;50.520;30.486;2023-08-17T00:31:26;100592.75;;;25.05;59.33
45253;BME280;63171;50.520;30.486;2023-08-17T00:32:16;100598.13;;;25.05;59.43
45253;BME280;63171;50.520;30.486;2023-08-17T00:33:06;100602.63;;;25.04;59.53
45253;BME280;63171;50.520;30.486;2023-08-17T00:33:55;100600.31;;;25.01;59.52
45253;BME280;63171;50.520;30.486;2023-08-17T00:34:46;100597.94;;;24.98;59.38
45253;BME280;63171;50.520;30.486;2023-08-17T00:35:37;100600.78;;;24.97;59.72
45253;BME280;63171;50.520;30.486;2023-08-17T00:36:27;100602.13;;;24.93;59.75
45253;BME280;63171;50.520;30.486;2023-08-17T00:37:17;100601.81;;;24.88;59.46
45253;BME280;63171;50.520;30.486;2023-08-17T00:38:07;100604.97;;;24.83;59.62
45253;BME280;63171;50.520;30.486;2023-08-17T00:38:57;100607.66;;;24.83;59.88
45253;BME280;63171;50.520;30.486;2023-08-17T00:39:47;100609.69;;;24.81;59.94
45253;BME280;63171;50.520;30.486;2023-08-17T00:40:37;100606.16;;;24.81;59.84
45253;BME280;63171;50.520;30.486;2023-08-17T00:41:26;100612.34;;;24.81;59.82
45253;BME280;63171;50.520;30.486;2023-08-17T00:42:17;100610.34;;;24.83;60.25
45253;BME280;63171;50.520;30.486;2023-08-17T00:43:06;100607.00;;;24.81;59.83
45253;BME280;63171;50.520;30.486;2023-08-17T00:43:56;100601.81;;;24.80;60.26
45253;BME280;63171;50.520;30.486;2023-08-17T00:44:48;100608.84;;;24.81;60.20
45253;BME280;63171;50.520;30.486;2023-08-17T00:45:37;100600.16;;;24.79;60.44
45253;BME280;63171;50.520;30.486;2023-08-17T00:46:27;100603.81;;;24.77;60.29
45253;BME280;63171;50.520;30.486;2023-08-17T00:47:17;100601.81;;;24.80;60.23
45253;BME280;63171;50.520;30.486;2023-08-17T00:48:06;100604.66;;;24.78;60.49
45253;BME280;63171;50.520;30.486;2023-08-17T00:48:58;100601.97;;;24.78;60.58
45253;BME280;63171;50.520;30.486;2023-08-17T00:49:48;100603.00;;;24.77;60.51
45253;BME280;63171;50.520;30.486;2023-08-17T00:50:39;100603.81;;;24.77;60.70
45253;BME280;63171;50.520;30.486;2023-08-17T00:51:30;100602.66;;;24.80;60.74
45253;BME280;63171;50.520;30.486;2023-08-17T00:52:21;100600.31;;;24.77;60.52
45253;BME280;63171;50.520;30.486;2023-08-17T00:53:10;100602.34;;;24.75;60.54
45253;BME280;63171;50.520;30.486;2023-08-17T00:54:02;100606.50;;;24.77;60.79
45253;BME280;63171;50.520;30.486;2023-08-17T00:54:52;100600.66;;;24.74;60.86
45253;BME280;63171;50.520;30.486;2023-08-17T00:55:41;100598.66;;;24.76;60.80
45253;BME280;63171;50.520;30.486;2023-08-17T00:56:32;100600.31;;;24.77;60.64
45253;BME280;63171;50.520;30.486;2023-08-17T00:57:21;100603.00;;;24.77;60.54
45253;BME280;63171;50.520;30.486;2023-08-17T00:58:11;100601.31;;;24.76;60.70
45253;BME280;63171;50.520;30.486;2023-08-17T00:59:04;100600.16;;;24.79;60.69
45253;BME280;63171;50.520;30.486;2023-08-17T00:59:53;100594.28;;;24.75;60.94
45253;BME280;63171;50.520;30.486;2023-08-17T01:00:42;100595.13;;;24.75;60.85
45253;BME280;63171;50.520;30.486;2023-08-17T01:01:32;100599.00;;;24.73;60.75
45253;BME280;63171;50.520;30.486;2023-08-17T01:02:22;100598.63;;;24.68;60.77
45253;BME280;63171;50.520;30.486;2023-08-17T01:03:12;100603.16;;;24.67;60.80
45253;BME280;63171;50.520;30.486;2023-08-17T01:04:02;100593.09;;;24.69;60.70
45253;BME280;63171;50.520;30.486;2023-08-17T01:04:51;100602.16;;;24.68;60.62
45253;BME280;63171;50.520;30.486;2023-08-17T01:05:42;100596.13;;;24.66;60.63
45253;BME280;63171;50.520;30.486;2023-08-17T01:06:33;100601.00;;;24.63;60.85
45253;BME280;63171;50.520;30.486;2023-08-17T01:07:22;100600.00;;;24.64;61.00
45253;BME280;63171;50.520;30.486;2023-08-17T01:08:12;100598.16;;;24.64;60.78
45253;BME280;63171;50.520;30.486;2023-08-17T01:09:02;100602.84;;;24.62;60.86
45253;BME280;63171;50.520;30.486;2023-08-17T01:09:52;100596.31;;;24.65;61.19
45253;BME280;63171;50.520;30.486;2023-08-17T01:10:45;100601.66;;;24.65;61.16
45253;BME280;63171;50.520;30.486;2023-08-17T01:11:39;100599.16;;;24.63;61.00
45253;BME280;63171;50.520;30.486;2023-08-17T01:12:32;100600.00;;;24.64;61.28
45253;BME280;63171;50.520;30.486;2023-08-17T01:13:24;100607.19;;;24.63;60.99
45253;BME280;63171;50.520;30.486;2023-08-17T01:14:17;100603.34;;;24.66;61.11
45253;BME280;63171;50.520;30.486;2023-08-17T01:15:12;100611.38;;;24.66;61.05
45253;BME280;63171;50.520;30.486;2023-08-17T01:16:05;100610.53;;;24.65;61.36
45253;BME280;63171;50.520;30.486;2023-08-17T01:16:56;100606.34;;;24.63;61.24
45253;BME280;63171;50.520;30.486;2023-08-17T01:17:52;100603.84;;;24.61;61.43
45253;BME280;63171;50.520;30.486;2023-08-17T01:18:44;100606.69;;;24.60;61.62
45253;BME280;63171;50.520;30.486;2023-08-17T01:19:35;100608.72;;;24.58;61.45
45253;BME280;63171;50.520;30.486;2023-08-17T01:20:26;100611.22;;;24.59;61.37
45253;BME280;63171;50.520;30.486;2023-08-17T01:21:18;100607.84;;;24.57;61.36
45253;BME280;63171;50.520;30.486;2023-08-17T01:22:10;100611.38;;;24.58;61.79
45253;BME280;63171;50.520;30.486;2023-08-17T01:23:03;100615.03;;;24.57;61.64
45253;BME280;63171;50.520;30.486;2023-08-17T01:23:57;100609.69;;;24.57;61.97
45253;BME280;63171;50.520;30.486;2023-08-17T01:24:46;100605.34;;;24.56;61.64
45253;BME280;63171;50.520;30.486;2023-08-17T01:25:36;100614.22;;;24.56;61.91
45253;BME280;63171;50.520;30.486;2023-08-17T01:26:26;100608.00;;;24.56;61.82
45253;BME280;63171;50.520;30.486;2023-08-17T01:27:16;100607.53;;;24.52;62.01
45253;BME280;63171;50.520;30.486;2023-08-17T01:28:07;100605.50;;;24.54;62.07
45253;BME280;63171;50.520;30.486;2023-08-17T01:28:56;100610.88;;;24.54;61.83
45253;BME280;63171;50.520;30.486;2023-08-17T01:29:45;100607.69;;;24.51;62.04
45253;BME280;63171;50.520;30.486;2023-08-17T01:30:37;100603.19;;;24.51;62.25
45253;BME280;63171;50.520;30.486;2023-08-17T01:31:30;100602.50;;;24.49;62.18
45253;BME280;63171;50.520;30.486;2023-08-17T01:32:25;100602.84;;;24.46;62.33
45253;BME280;63171;50.520;30.486;2023-08-17T01:33:18;100604.88;;;24.44;62.28
45253;BME280;63171;50.520;30.486;2023-08-17T01:34:10;100601.31;;;24.43;62.22
45253;BME280;63171;50.520;30.486;2023-08-17T01:35:09;100608.38;;;24.44;62.45
45253;BME280;63171;50.520;30.486;2023-08-17T01:36:03;100602.84;;;24.46;62.67
45253;BME280;63171;50.520;30.486;2023-08-17T01:36:56;100602.03;;;24.45;62.39
45253;BME280;63171;50.520;30.486;2023-08-17T01:37:47;100601.00;;;24.46;62.59
45253;BME280;63171;50.520;30.486;2023-08-17T01:38:41;100600.34;;;24.44;62.72
45253;BME280;63171;50.520;30.486;2023-08-17T01:39:33;100602.03;;;24.45;62.77
45253;BME280;63171;50.520;30.486;2023-08-17T01:40:24;100605.00;;;24.42;62.38
45253;BME280;63171;50.520;30.486;2023-08-17T01:41:15;100609.69;;;24.40;62.44
45253;BME280;63171;50.520;30.486;2023-08-17T01:42:06;100596.66;;;24.37;62.39
45253;BME280;63171;50.520;30.486;2023-08-17T01:42:56;100600.16;;;24.38;62.78
45253;BME280;63171;50.520;30.486;2023-08-17T01:43:46;100602.00;;;24.37;62.83
45253;BME280;63171;50.520;30.486;2023-08-17T01:44:37;100597.47;;;24.38;62.86
45253;BME280;63171;50.520;30.486;2023-08-17T01:45:26;100608.38;;;24.36;62.63
45253;BME280;63171;50.520;30.486;2023-08-17T01:46:17;100597.81;;;24.35;62.82
45253;BME280;63171;50.520;30.486;2023-08-17T01:47:06;100602.34;;;24.34;62.92
45253;BME280;63171;50.520;30.486;2023-08-17T01:47:57;100597.31;;;24.31;62.67
45253;BME280;63171;50.520;30.486;2023-08-17T01:48:46;100600.97;;;24.30;62.98
45253;BME280;63171;50.520;30.486;2023-08-17T01:49:35;100599.44;;;24.28;62.97
45253;BME280;63171;50.520;30.486;2023-08-17T01:50:26;100595.75;;;24.29;63.13
45253;BME280;63171;50.520;30.486;2023-08-17T01:51:16;100602.28;;;24.26;62.95
45253;BME280;63171;50.520;30.486;2023-08-17T01:52:06;100598.94;;;24.24;63.21
45253;BME280;63171;50.520;30.486;2023-08-17T01:52:57;100600.13;;;24.22;63.19
45253;BME280;63171;50.520;30.486;2023-08-17T01:53:47;100606.66;;;24.19;62.84
45253;BME280;63171;50.520;30.486;2023-08-17T01:54:37;100597.91;;;24.17;63.05
45253;BME280;63171;50.520;30.486;2023-08-17T01:55:27;100603.63;;;24.14;63.06
45253;BME280;63171;50.520;30.486;2023-08-17T01:56:17;100604.63;;;24.13;63.17
45253;BME280;63171;50.520;30.486;2023-08-17T01:57:08;100601.28;;;24.11;63.31
45253;BME280;63171;50.520;30.486;2023-08-17T01:57:58;100607.13;;;24.14;63.18
45253;BME280;63171;50.520;30.486;2023-08-17T01:58:47;100606.13;;;24.15;63.47
45253;BME280;63171;50.520;30.486;2023-08-17T01:59:37;100606.13;;;24.15;63.42
45253;BME280;63171;50.520;30.486;2023-08-17T02:00:26;100605.94;;;24.17;63.87
45253;BME280;63171;50.520;30.486;2023-08-17T02:01:15;100611.31;;;24.17;63.68
45253;BME280;63171;50.520;30.486;2023-08-17T02:02:07;100615.81;;;24.16;63.67
45253;BME280;63171;50.520;30.486;2023-08-17T02:02:58;100609.50;;;24.17;63.85
45253;BME280;63171;50.520;30.486;2023-08-17T02:03:48;100618.38;;;24.18;64.13
45253;BME280;63171;50.520;30.486;2023-08-17T02:04:38;100610.63;;;24.15;63.88
45253;BME280;63171;50.520;30.486;2023-08-17T02:05:29;100621.03;;;24.18;64.05
45253;BME280;63171;50.520;30.486;2023-08-17T02:06:20;100612.31;;;24.16;64.02
45253;BME280;63171;50.520;30.486;2023-08-17T02:07:09;100611.31;;;24.17;64.18
45253;BME280;63171;50.520;30.486;2023-08-17T02:07:59;100609.50;;;24.17;64.14
45253;BME280;63171;50.520;30.486;2023-08-17T02:08:52;100613.47;;;24.13;64.56
45253;BME280;63171;50.520;30.486;2023-08-17T02:09:42;100609.97;;;24.13;64.49
45253;BME280;63171;50.520;30.486;2023-08-17T02:10:32;100615.50;;;24.11;64.49
45253;BME280;63171;50.520;30.486;2023-08-17T02:11:21;100612.16;;;24.09;64.75
45253;BME280;63171;50.520;30.486;2023-08-17T02:12:11;100611.66;;;24.06;64.83
45253;BME280;63171;50.520;30.486;2023-08-17T02:13:01;100614.50;;;24.04;64.76
45253;BME280;63171;50.520;30.486;2023-08-17T02:13:50;100607.44;;;24.03;65.11
45253;BME280;63171;50.520;30.486;2023-08-17T02:14:40;100608.59;;;24.01;64.94
45253;BME280;63171;50.520;30.486;2023-08-17T02:15:30;100613.28;;;23.99;65.08
45253;BME280;63171;50.520;30.486;2023-08-17T02:16:19;100616.13;;;23.97;65.04
45253;BME280;63171;50.520;30.486;2023-08-17T02:17:09;100613.63;;;23.96;65.35
45253;BME280;63171;50.520;30.486;2023-08-17T02:18:00;100622.16;;;23.99;65.39
45253;BME280;63171;50.520;30.486;2023-08-17T02:18:51;100615.28;;;23.97;65.51
45253;BME280;63171;50.520;30.486;2023-08-17T02:19:41;100619.81;;;23.96;65.39
45253;BME280;63171;50.520;30.486;2023-08-17T02:20:31;100619.31;;;24.01;65.64
45253;BME280;63171;50.520;30.486;2023-08-17T02:21:20;100615.63;;;24.02;65.54
45253;BME280;63171;50.520;30.486;2023-08-17T02:22:10;100618.13;;;24.03;65.82
45253;BME280;63171;50.520;30.486;2023-08-17T02:23:00;100614.78;;;24.01;65.82
45253;BME280;63171;50.520;30.486;2023-08-17T02:23:49;100616.31;;;24.04;65.95
45253;BME280;63171;50.520;30.486;2023-08-17T02:24:41;100617.81;;;23.98;65.95
45253;BME280;63171;50.520;30.486;2023-08-17T02:25:31;100620.81;;;23.95;65.99
45253;BME280;63171;50.520;30.486;2023-08-17T02:26:24;100617.81;;;23.98;66.08
45253;BME280;63171;50.520;30.486;2023-08-17T02:27:14;100616.81;;;23.99;66.50
45253;BME280;63171;50.520;30.486;2023-08-17T02:28:04;100625.50;;;24.01;66.46
45253;BME280;63171;50.520;30.486;2023-08-17T02:28:53;100621.97;;;24.01;66.64
45253;BME280;63171;50.520;30.486;2023-08-17T02:29:46;100621.31;;;23.99;66.49
45253;BME280;63171;50.520;30.486;2023-08-17T02:30:36;100622.31;;;23.98;67.01
45253;BME280;63171;50.520;30.486;2023-08-17T02:31:25;100621.47;;;23.97;66.83
45253;BME280;63171;50.520;30.486;2023-08-17T02:32:19;100624.16;;;23.97;66.74
45253;BME280;63171;50.520;30.486;2023-08-17T02:33:10;100625.00;;;23.98;66.98
45253;BME280;63171;50.520;30.486;2023-08-17T02:34:01;100617.31;;;23.95;66.88
45253;BME280;63171;50.520;30.486;2023-08-17T02:34:54;100621.16;;;23.92;66.96
45253;BME280;63171;50.520;30.486;2023-08-17T02:35:47;100624.97;;;23.89;67.13
45253;BME280;63171;50.520;30.486;2023-08-17T02:36:37;100617.28;;;23.86;66.97
45253;BME280;63171;50.520;30.486;2023-08-17T02:37:28;100620.94;;;23.85;67.15
45253;BME280;63171;50.520;30.486;2023-08-17T02:38:18;100623.28;;;23.88;67.17
45253;BME280;63171;50.520;30.486;2023-08-17T02:39:09;100624.97;;;23.89;67.22
45253;BME280;63171;50.520;30.486;2023-08-17T02:39:59;100622.63;;;23.86;67.54
45253;BME280;63171;50.520;30.486;2023-08-17T02:40:50;100618.94;;;23.87;67.42
45253;BME280;63171;50.520;30.486;2023-08-17T02:41:40;100622.28;;;23.89;67.56
45253;BME280;63171;50.520;30.486;2023-08-17T02:42:30;100617.94;;;23.88;67.73
45253;BME280;63171;50.520;30.486;2023-08-17T02:43:20;100618.94;;;23.87;67.95
45253;BME280;63171;50.520;30.486;2023-08-17T02:44:10;100624.28;;;23.87;67.84
45253;BME280;63171;50.520;30.486;2023-08-17T02:44:59;100628.47;;;23.90;68.40
45253;BME280;63171;50.520;30.486;2023-08-17T02:45:50;100624.13;;;23.89;68.33
45253;BME280;63171;50.520;30.486;2023-08-17T02:46:39;100632.16;;;23.89;68.32
45253;BME280;63171;50.520;30.486;2023-08-17T02:47:28;100621.78;;;23.86;68.61
45253;BME280;63171;50.520;30.486;2023-08-17T02:48:19;100621.78;;;23.86;68.48
45253;BME280;63171;50.520;30.486;2023-08-17T02:49:08;100624.63;;;23.84;68.95
45253;BME280;63171;50.520;30.486;2023-08-17T02:49:57;100621.28;;;23.82;68.72
45253;BME280;63171;50.520;30.486;2023-08-17T02:50:48;100623.28;;;23.80;68.73
45253;BME280;63171;50.520;30.486;2023-08-17T02:51:37;100617.94;;;23.80;69.12
45253;BME280;63171;50.520;30.486;2023-08-17T02:52:27;100634.16;;;23.79;69.20
45253;BME280;63171;50.520;30.486;2023-08-17T02:53:17;100627.81;;;23.80;69.42
45253;BME280;63171;50.520;30.486;2023-08-17T02:54:06;100629.94;;;23.76;69.42
45253;BME280;63171;50.520;30.486;2023-08-17T02:54:56;100620.94;;;23.77;69.19
45253;BME280;63171;50.520;30.486;2023-08-17T02:55:48;100621.25;;;23.74;69.26
45253;BME280;63171;50.520;30.486;2023-08-17T02:56:37;100619.94;;;23.78;69.77
45253;BME280;63171;50.520;30.486;2023-08-17T02:57:26;100622.44;;;23.80;69.71
45253;BME280;63171;50.520;30.486;2023-08-17T02:58:17;100621.44;;;23.81;69.68
45253;BME280;63171;50.520;30.486;2023-08-17T02:59:06;100626.63;;;23.82;69.64
45253;BME280;63171;50.520;30.486;2023-08-17T02:59:56;100621.28;;;23.82;69.46
45253;BME280;63171;50.520;30.486;2023-08-17T03:00:46;100619.28;;;23.84;69.66
45253;BME280;63171;50.520;30.486;2023-08-17T03:01:37;100631.47;;;23.87;69.55
45253;BME280;63171;50.520;30.486;2023-08-17T03:02:27;100629.34;;;23.91;69.98
45253;BME280;63171;50.520;30.486;2023-08-17T03:03:17;100628.19;;;23.93;70.02
45253;BME280;63171;50.520;30.486;2023-08-17T03:04:06;100632.53;;;23.94;69.95
45253;BME280;63171;50.520;30.486;2023-08-17T03:04:58;100628.00;;;23.95;70.06
45253;BME280;63171;50.520;30.486;2023-08-17T03:05:47;100629.50;;;23.97;69.90
45253;BME280;63171;50.520;30.486;2023-08-17T03:06:37;100632.03;;;23.99;69.97
45253;BME280;63171;50.520;30.486;2023-08-17T03:07:27;100636.38;;;24.00;70.00
45253;BME280;63171;50.520;30.486;2023-08-17T03:08:16;100631.00;;;24.00;70.10
45253;BME280;63171;50.520;30.486;2023-08-17T03:09:06;100629.84;;;24.02;70.33
45253;BME280;63171;50.520;30.486;2023-08-17T03:09:57;100633.34;;;24.03;69.95
45253;BME280;63171;50.520;30.486;2023-08-17T03:10:49;100635.72;;;24.06;69.83
45253;BME280;63171;50.520;30.486;2023-08-17T03:11:41;100638.06;;;24.09;69.99
45253;BME280;63171;50.520;30.486;2023-08-17T03:12:31;100629.88;;;24.10;69.75
45253;BME280;63171;50.520;30.486;2023-08-17T03:13:20;100637.91;;;24.10;69.59
45253;BME280;63171;50.520;30.486;2023-08-17T03:14:09;100627.88;;;24.12;69.62
45253;BME280;63171;50.520;30.486;2023-08-17T03:14:59;100628.53;;;24.14;69.64
45253;BME280;63171;50.520;30.486;2023-08-17T03:15:51;100632.88;;;24.15;69.81
45253;BME280;63171;50.520;30.486;2023-08-17T03:16:42;100633.41;;;24.19;69.77
45253;BME280;63171;50.520;30.486;2023-08-17T03:17:31;100632.41;;;24.20;69.58
45253;BME280;63171;50.520;30.486;2023-08-17T03:18:21;100633.91;;;24.23;69.70
45253;BME280;63171;50.520;30.486;2023-08-17T03:19:11;100634.09;;;24.21;69.57
45253;BME280;63171;50.520;30.486;2023-08-17T03:20:01;100640.09;;;24.23;69.73
45253;BME280;63171;50.520;30.486;2023-08-17T03:20:51;100641.78;;;24.24;69.54
45253;BME280;63171;50.520;30.486;2023-08-17T03:21:42;100637.75;;;24.28;69.92
45253;BME280;63171;50.520;30.486;2023-08-17T03:22:33;100636.75;;;24.29;69.68
45253;BME280;63171;50.520;30.486;2023-08-17T03:23:22;100637.50;;;24.31;69.97
45253;BME280;63171;50.520;30.486;2023-08-17T03:24:13;100636.47;;;24.32;69.76
45253;BME280;63171;50.520;30.486;2023-08-17T03:25:03;100634.63;;;24.33;69.99
45253;BME280;63171;50.520;30.486;2023-08-17T03:25:54;100641.00;;;24.32;69.89
45253;BME280;63171;50.520;30.486;2023-08-17T03:26:45;100641.84;;;24.32;69.89
45253;BME280;63171;50.520;30.486;2023-08-17T03:36:07;100640.00;;;24.57;69.68
45253;BME280;63171;50.520;30.486;2023-08-17T03:37:00;100643.53;;;24.58;69.65
45253;BME280;63171;50.520;30.486;2023-08-17T03:37:49;100636.16;;;24.60;69.67
45253;BME280;63171;50.520;30.486;2023-08-17T03:38:39;100642.00;;;24.63;69.72
45253;BME280;63171;50.520;30.486;2023-08-17T03:41:25;100641.69;;;24.74;69.30
45253;BME280;63171;50.520;30.486;2023-08-17T03:42:15;100637.66;;;24.79;69.20
45253;BME280;63171;50.520;30.486;2023-08-17T03:43:05;100638.84;;;24.84;69.00
45253;BME280;63171;50.520;30.486;2023-08-17T03:43:54;100632.28;;;24.87;68.94
45253;BME280;63171;50.520;30.486;2023-08-17T03:46:36;100633.78;;;24.97;68.63
45253;BME280;63171;50.520;30.486;2023-08-17T03:47:27;100635.28;;;25.00;68.75
45253;BME280;63171;50.520;30.486;2023-08-17T03:48:17;100637.97;;;25.00;68.41
45253;BME280;63171;50.520;30.486;2023-08-17T03:51:00;100630.09;;;24.90;68.03
45253;BME280;63171;50.520;30.486;2023-08-17T03:57:23;100635.78;;;24.95;67.35
45253;BME280;63171;50.520;30.486;2023-08-17T03:58:13;100632.78;;;24.98;67.39
45253;BME280;63171;50.520;30.486;2023-08-17T03:59:03;100632.78;;;24.98;67.19
45253;BME280;63171;50.520;30.486;2023-08-17T04:01:44;100627.44;;;25.07;67.33
45253;BME280;63171;50.520;30.486;2023-08-17T04:04:27;100628.13;;;25.00;66.89
45253;BME280;63171;50.520;30.486;2023-08-17T04:05:19;100626.59;;;25.06;67.09
45253;BME280;63171;50.520;30.486;2023-08-17T04:08:00;100631.91;;;25.22;66.69
45253;BME280;63171;50.520;30.486;2023-08-17T04:14:31;100625.06;;;25.67;66.07
45253;BME280;63171;50.520;30.486;2023-08-17T04:15:21;100620.84;;;25.73;65.78
45253;BME280;63171;50.520;30.486;2023-08-17T04:16:11;100634.94;;;25.75;65.78
45253;BME280;63171;50.520;30.486;2023-08-17T04:17:03;100631.22;;;25.76;65.44
45253;BME280;63171;50.520;30.486;2023-08-17T04:17:52;100627.53;;;25.77;65.40
45253;BME280;63171;50.520;30.486;2023-08-17T04:18:42;100631.56;;;25.81;65.26
45253;BME280;63171;50.520;30.486;2023-08-17T04:24:32;100631.53;;;26.12;64.29
45253;BME280;63171;50.520;30.486;2023-08-17T04:27:08;100633.09;;;26.29;63.39
45253;BME280;63171;50.520;30.486;2023-08-17T04:28:06;100633.25;;;26.36;63.14
45253;BME280;63171;50.520;30.486;2023-08-17T04:32:37;100640.88;;;26.70;61.90
45253;BME280;63171;50.520;30.486;2023-08-17T04:33:27;100640.16;;;26.76;61.58
45253;BME280;63171;50.520;30.486;2023-08-17T04:34:16;100636.72;;;26.82;61.32
45253;BME280;63171;50.520;30.486;2023-08-17T04:38:44;100639.59;;;27.03;60.02
45253;BME280;63171;50.520;30.486;2023-08-17T04:41:08;100642.75;;;27.22;59.17
45253;BME280;63171;50.520;30.486;2023-08-17T04:41:59;100643.25;;;27.25;58.90
45253;BME280;63171;50.520;30.486;2023-08-17T04:42:54;100644.34;;;27.31;58.45
45253;BME280;63171;50.520;30.486;2023-08-17T04:45:30;100643.50;;;27.45;57.54
45253;BME280;63171;50.520;30.486;2023-08-17T04:46:20;100646.31;;;27.52;57.30
45253;BME280;63171;50.520;30.486;2023-08-17T04:47:10;100637.66;;;27.56;57.01
45253;BME280;63171;50.520;30.486;2023-08-17T04:49:53;100646.97;;;27.68;56.28
45253;BME280;63171;50.520;30.486;2023-08-17T04:54:29;100641.59;;;27.90;54.64
45253;BME280;63171;50.520;30.486;2023-08-17T04:56:25;100639.41;;;27.93;54.20
45253;BME280;63171;50.520;30.486;2023-08-17T04:57:17;100648.31;;;27.94;54.00
45253;BME280;63171;50.520;30.486;2023-08-17T04:59:54;100637.88;;;28.06;53.38
45253;BME280;63171;50.520;30.486;2023-08-17T05:00:45;100642.69;;;28.10;53.10
45253;BME280;63171;50.520;30.486;2023-08-17T05:01:35;100639.53;;;28.07;52.71
45253;BME280;63171;50.520;30.486;2023-08-17T05:04:16;100638.97;;;28.11;52.54
45253;BME280;63171;50.520;30.486;2023-08-17T05:05:10;100642.94;;;28.15;52.16
45253;BME280;63171;50.520;30.486;2023-08-17T05:08:09;100644.13;;;28.27;51.84
45253;BME280;63171;50.520;30.486;2023-08-17T05:10:52;100636.81;;;28.43;51.05
45253;BME280;63171;50.520;30.486;2023-08-17T05:23:34;100646.75;;;28.64;48.95
45253;BME280;63171;50.520;30.486;2023-08-17T05:24:28;100647.34;;;28.59;48.68
45253;BME280;63171;50.520;30.486;2023-08-17T05:28:56;100645.50;;;28.60;48.31
45253;BME280;63171;50.520;30.486;2023-08-17T05:29:47;100644.00;;;28.57;48.28
45253;BME280;63171;50.520;30.486;2023-08-17T05:35:37;100641.19;;;28.65;47.72
45253;BME280;63171;50.520;30.486;2023-08-17T05:36:27;100644.47;;;28.61;47.79
45253;BME280;63171;50.520;30.486;2023-08-17T05:37:17;100646.16;;;28.68;47.83
45253;BME280;63171;50.520;30.486;2023-08-17T05:40:02;100644.56;;;28.74;47.78
45253;BME280;63171;50.520;30.486;2023-08-17T05:40:54;100639.66;;;28.84;47.46
45253;BME280;63171;50.520;30.486;2023-08-17T05:43:11;100641.91;;;29.02;47.40
45253;BME280;63171;50.520;30.486;2023-08-17T05:44:02;100636.53;;;29.02;47.34
45253;BME280;63171;50.520;30.486;2023-08-17T05:44:51;100637.50;;;28.94;46.90
45253;BME280;63171;50.520;30.486;2023-08-17T05:47:27;100638.94;;;28.90;46.64
45253;BME280;63171;50.520;30.486;2023-08-17T05:51:54;100639.34;;;29.22;46.93
45253;BME280;63171;50.520;30.486;2023-08-17T05:52:45;100637.72;;;29.27;46.64
45253;BME280;63171;50.520;30.486;2023-08-17T05:53:34;100642.94;;;29.35;46.29
45253;BME280;63171;50.520;30.486;2023-08-17T06:02:05;100643.25;;;29.47;45.33
45253;BME280;63171;50.520;30.486;2023-08-17T06:02:55;100635.22;;;29.54;45.60
45253;BME280;63171;50.520;30.486;2023-08-17T06:03:50;100634.38;;;29.60;45.21